createdAt,value
2023-01-30T00:01:15.024Z,100392.52
2023-01-30T00:03:43.405Z,100391.60
2023-01-30T00:06:12.312Z,100389.57
2023-01-30T00:08:41.004Z,100390.96
2023-01-30T00:11:11.238Z,100381.95
2023-01-30T00:13:40.162Z,100375.20
2023-01-30T00:16:10.104Z,100370.84
2023-01-30T00:18:39.690Z,100364.70
2023-01-30T00:21:10.007Z,100356.61
2023-01-30T00:23:39.112Z,100353.73
2023-01-30T00:26:09.973Z,100352.80
2023-01-30T00:28:39.876Z,100344.88
2023-01-30T00:31:09.276Z,100340.82
2023-01-30T00:33:38.459Z,100333.60
2023-01-30T00:36:09.398Z,100329.95
2023-01-30T00:38:37.841Z,100329.16
2023-01-30T00:41:06.318Z,100319.33
2023-01-30T00:43:53.599Z,100313.38
2023-01-30T00:46:44.801Z,100301.95
2023-01-30T00:49:14.679Z,100295.20
2023-01-30T00:51:43.157Z,100287.90
2023-01-30T00:54:11.562Z,100285.73
2023-01-30T00:56:40.115Z,100277.81
2023-01-30T00:59:08.608Z,100274.14
2023-01-30T01:01:37.750Z,100266.41
2023-01-30T01:04:09.836Z,100258.11
2023-01-30T01:06:38.933Z,100249.24
2023-01-30T01:09:07.651Z,100245.55
2023-01-30T01:11:36.599Z,100239.96
2023-01-30T01:14:06.218Z,100235.25
2023-01-30T01:16:35.126Z,100227.22
2023-01-30T01:19:04.411Z,100221.30
2023-01-30T01:21:32.861Z,100211.91
2023-01-30T01:24:01.430Z,100200.88
2023-01-30T01:26:29.943Z,100196.50
2023-01-30T01:28:58.704Z,100188.79
2023-01-30T01:31:27.527Z,100177.33
2023-01-30T01:33:56.240Z,100162.08
2023-01-30T01:36:51.524Z,100157.53
2023-01-30T01:39:15.481Z,100155.55
2023-01-30T01:41:46.202Z,100148.45
2023-01-30T01:44:16.996Z,100143.10
2023-01-30T01:46:48.528Z,100137.27
2023-01-30T01:49:20.684Z,100137.85
2023-01-30T01:51:53.543Z,100125.55
2023-01-30T01:54:25.358Z,100127.25
2023-01-30T01:56:54.183Z,100118.73
2023-01-30T01:59:25.719Z,100112.79
2023-01-30T02:01:58.284Z,100115.66
2023-01-30T02:04:46.403Z,100105.85
2023-01-30T02:07:15.343Z,100105.40
2023-01-30T02:09:43.871Z,100099.55
2023-01-30T02:12:14.023Z,100095.61
2023-01-30T02:14:42.813Z,100091.05
2023-01-30T02:17:11.388Z,100092.05
2023-01-30T02:19:49.247Z,100087.73
2023-01-30T02:22:42.201Z,100086.88
2023-01-30T02:25:38.304Z,100074.70
2023-01-30T02:28:33.144Z,100068.77
2023-01-30T02:31:28.143Z,100060.55
2023-01-30T02:34:09.249Z,100058.37
2023-01-30T02:36:45.342Z,100057.86
2023-01-30T02:39:21.050Z,100055.80
2023-01-30T02:41:56.543Z,100053.83
2023-01-30T02:44:29.165Z,100050.67
2023-01-30T02:47:01.762Z,100043.45
2023-01-30T02:49:34.737Z,100040.94
2023-01-30T02:52:04.814Z,100033.39
2023-01-30T02:54:33.224Z,100027.33
2023-01-30T02:57:01.887Z,100018.34
2023-01-30T02:59:33.586Z,100020.20
2023-01-30T03:02:20.136Z,100017.54
2023-01-30T03:05:10.924Z,100015.48
2023-01-30T03:07:45.281Z,100013.20
2023-01-30T03:10:22.910Z,100000.98
2023-01-30T03:12:57.283Z,99997.05
2023-01-30T03:15:29.904Z,99992.72
2023-01-30T03:17:58.909Z,99982.85
2023-01-30T03:20:27.443Z,99972.77
2023-01-30T03:22:56.258Z,99969.75
2023-01-30T03:25:26.576Z,99963.16
2023-01-30T03:27:56.063Z,99952.56
2023-01-30T03:30:26.197Z,99935.44
2023-01-30T03:32:54.530Z,99922.72
2023-01-30T03:35:22.909Z,99917.95
2023-01-30T03:37:52.146Z,99915.76
2023-01-30T03:40:20.699Z,99906.77
2023-01-30T03:42:49.075Z,99908.31
2023-01-30T03:45:18.929Z,99900.37
2023-01-30T03:47:47.520Z,99899.95
2023-01-30T03:50:16.701Z,99896.48
2023-01-30T03:52:45.128Z,99897.92
2023-01-30T03:55:13.774Z,99895.19
2023-01-30T03:57:42.134Z,99890.98
2023-01-30T04:00:12.655Z,99882.94
2023-01-30T04:02:41.207Z,99882.75
2023-01-30T04:05:11.294Z,99881.73
2023-01-30T04:07:39.911Z,99871.39
2023-01-30T04:10:10.866Z,99866.19
2023-01-30T04:12:39.230Z,99857.56
2023-01-30T04:15:09.972Z,99854.61
2023-01-30T04:17:38.504Z,99845.93
2023-01-30T04:20:10.582Z,99842.98
2023-01-30T04:22:39.021Z,99838.83
2023-01-30T04:25:09.076Z,99828.90
2023-01-30T04:27:37.546Z,99820.58
2023-01-30T04:30:08.613Z,99815.23
2023-01-30T04:32:37.201Z,99811.61
2023-01-30T04:35:07.014Z,99802.32
2023-01-30T04:37:35.442Z,99796.80
2023-01-30T04:40:05.339Z,99791.31
2023-01-30T04:42:33.876Z,99776.55
2023-01-30T04:45:02.385Z,99772.48
2023-01-30T04:47:30.918Z,99764.41
2023-01-30T04:49:59.361Z,99758.59
2023-01-30T04:52:27.736Z,99760.88
2023-01-30T04:54:56.237Z,99755.08
2023-01-30T04:57:24.780Z,99745.80
2023-01-30T04:59:53.149Z,99744.89
2023-01-30T05:02:23.070Z,99743.61
2023-01-30T05:04:52.480Z,99742.63
2023-01-30T05:07:20.846Z,99749.25
2023-01-30T05:09:49.246Z,99748.25
2023-01-30T05:12:17.630Z,99743.77
2023-01-30T05:14:46.382Z,99730.12
2023-01-30T05:17:15.099Z,99717.66
2023-01-30T05:19:43.492Z,99716.66
2023-01-30T05:22:12.093Z,99706.78
2023-01-30T05:24:40.741Z,99702.32
2023-01-30T05:27:09.141Z,99695.13
2023-01-30T05:29:37.494Z,99683.50
2023-01-30T05:32:06.903Z,99679.91
2023-01-30T05:34:35.285Z,99680.82
2023-01-30T05:37:03.679Z,99676.50
2023-01-30T05:39:32.287Z,99673.13
2023-01-30T05:42:00.820Z,99655.84
2023-01-30T05:44:29.586Z,99653.59
2023-01-30T05:46:58.301Z,99657.36
2023-01-30T05:49:26.801Z,99660.09
2023-01-30T05:51:55.552Z,99651.30
2023-01-30T05:54:24.537Z,99650.87
2023-01-30T05:56:53.055Z,99647.02
2023-01-30T05:59:21.805Z,99644.99
2023-01-30T06:01:50.516Z,99642.94
2023-01-30T06:04:18.954Z,99641.52
2023-01-30T06:06:50.217Z,99636.99
2023-01-30T06:09:18.811Z,99630.66
2023-01-30T06:11:47.428Z,99622.65
2023-01-30T06:14:15.787Z,99615.02
2023-01-30T06:16:45.416Z,99604.23
2023-01-30T06:19:13.912Z,99597.82
2023-01-30T06:21:42.293Z,99601.20
2023-01-30T06:24:10.795Z,99595.59
2023-01-30T06:26:39.317Z,99586.05
2023-01-30T06:29:07.788Z,99584.40
2023-01-30T06:31:36.485Z,99587.63
2023-01-30T06:34:04.935Z,99585.19
2023-01-30T06:36:33.440Z,99580.95
2023-01-30T06:39:01.946Z,99578.05
2023-01-30T06:41:30.415Z,99578.83
2023-01-30T06:43:58.784Z,99581.18
2023-01-30T06:46:27.744Z,99580.94
2023-01-30T06:48:56.133Z,99581.48
2023-01-30T06:51:26.896Z,99579.09
2023-01-30T06:53:56.069Z,99573.15
2023-01-30T06:56:24.710Z,99561.68
2023-01-30T06:58:53.097Z,99560.23
2023-01-30T07:01:22.253Z,99557.05
2023-01-30T07:03:50.721Z,99553.45
2023-01-30T07:06:19.523Z,99552.70
2023-01-30T07:08:49.442Z,99555.46
2023-01-30T07:11:17.880Z,99548.90
2023-01-30T07:13:46.320Z,99545.14
2023-01-30T07:16:15.051Z,99540.85
2023-01-30T07:18:43.570Z,99534.24
2023-01-30T07:21:14.218Z,99532.27
2023-01-30T07:23:43.375Z,99531.20
2023-01-30T07:26:12.464Z,99524.36
2023-01-30T07:28:40.989Z,99527.16
2023-01-30T07:31:09.766Z,99529.31
2023-01-30T07:33:38.336Z,99525.09
2023-01-30T07:36:07.820Z,99518.96
2023-01-30T07:38:36.437Z,99514.83
2023-01-30T07:41:05.111Z,99505.88
2023-01-30T07:43:33.447Z,99508.85
2023-01-30T07:46:02.195Z,99509.66
2023-01-30T07:48:30.814Z,99499.33
2023-01-30T07:50:59.215Z,99489.77
2023-01-30T07:53:28.069Z,99483.08
2023-01-30T07:55:56.647Z,99484.19
2023-01-30T07:58:25.142Z,99476.24
2023-01-30T08:00:59.091Z,99476.76
2023-01-30T08:03:27.930Z,99480.48
2023-01-30T08:05:56.512Z,99473.13
2023-01-30T08:08:26.556Z,99472.52
2023-01-30T08:10:55.357Z,99469.91
2023-01-30T08:13:23.939Z,99472.42
2023-01-30T08:15:52.383Z,99474.15
2023-01-30T08:18:24.899Z,99464.88
2023-01-30T08:20:58.608Z,99460.70
2023-01-30T08:23:27.696Z,99454.77
2023-01-30T08:25:57.063Z,99456.13
2023-01-30T08:28:27.775Z,99446.80
2023-01-30T08:30:56.874Z,99446.02
2023-01-30T08:33:25.557Z,99446.64
2023-01-30T08:35:57.081Z,99443.23
2023-01-30T08:38:28.222Z,99440.38
2023-01-30T08:40:57.479Z,99444.59
2023-01-30T08:43:26.065Z,99439.38
2023-01-30T08:45:55.193Z,99442.27
2023-01-30T08:48:24.088Z,99442.16
2023-01-30T08:50:53.431Z,99438.77
2023-01-30T08:53:21.912Z,99436.27
2023-01-30T08:55:51.372Z,99430.19
2023-01-30T08:58:20.305Z,99427.26
2023-01-30T09:00:49.870Z,99416.61
2023-01-30T09:03:19.271Z,99414.70
2023-01-30T09:05:47.794Z,99409.58
2023-01-30T09:08:16.232Z,99401.69
2023-01-30T09:10:44.661Z,99398.24
2023-01-30T09:13:13.195Z,99395.41
2023-01-30T09:15:43.256Z,99393.23
2023-01-30T09:18:11.686Z,99385.60
2023-01-30T09:20:40.140Z,99377.66
2023-01-30T09:23:08.818Z,99374.58
2023-01-30T09:25:37.495Z,99368.57
2023-01-30T09:28:07.469Z,99366.02
2023-01-30T09:30:36.055Z,99359.45
2023-01-30T09:33:04.821Z,99354.09
2023-01-30T09:35:33.303Z,99353.54
2023-01-30T09:38:02.493Z,99348.58
2023-01-30T09:40:32.848Z,99345.33
2023-01-30T09:43:14.431Z,99346.69
2023-01-30T09:45:55.422Z,99329.92
2023-01-30T09:48:29.523Z,99329.45
2023-01-30T09:51:18.980Z,99329.28
2023-01-30T09:54:30.776Z,99325.20
2023-01-30T09:57:21.656Z,99313.15
2023-01-30T09:59:58.562Z,99305.54
2023-01-30T10:02:37.105Z,99296.35
2023-01-30T10:05:07.748Z,99299.60
2023-01-30T10:07:52.094Z,99293.98
2023-01-30T10:10:22.372Z,99285.66
2023-01-30T10:12:59.134Z,99283.69
2023-01-30T10:15:36.570Z,99282.64
2023-01-30T10:18:37.139Z,99272.88
2023-01-30T10:21:14.591Z,99269.21
2023-01-30T10:23:55.568Z,99264.45
2023-01-30T10:26:26.962Z,99261.61
2023-01-30T10:29:07.846Z,99261.38
2023-01-30T10:31:42.174Z,99255.14
2023-01-30T10:34:14.111Z,99248.95
2023-01-30T10:36:46.902Z,99243.30
2023-01-30T10:39:24.772Z,99239.14
2023-01-30T10:41:57.200Z,99239.84
2023-01-30T10:44:30.522Z,99235.69
2023-01-30T10:47:26.451Z,99229.79
2023-01-30T10:49:57.629Z,99219.06
2023-01-30T10:52:33.673Z,99217.19
2023-01-30T10:55:07.639Z,99217.20
2023-01-30T10:57:54.798Z,99206.85
2023-01-30T11:00:30.171Z,99217.24
2023-01-30T11:03:08.418Z,99212.94
2023-01-30T11:05:42.034Z,99208.15
2023-01-30T11:08:19.915Z,99203.16
2023-01-30T11:10:48.466Z,99204.52
2023-01-30T11:13:19.644Z,99198.86
2023-01-30T11:15:52.459Z,99197.15
2023-01-30T11:19:08.188Z,99191.41
2023-01-30T11:21:13.229Z,99192.15
2023-01-30T11:23:43.176Z,99187.92
2023-01-30T11:26:22.253Z,99189.27
2023-01-30T11:28:50.993Z,99180.77
2023-01-30T11:31:38.859Z,99179.27
2023-01-30T11:34:14.865Z,99168.52
2023-01-30T11:36:43.431Z,99167.12
2023-01-30T11:39:27.853Z,99158.04
2023-01-30T11:42:02.901Z,99148.06
2023-01-30T11:44:34.518Z,99148.29
2023-01-30T11:47:06.836Z,99144.73
2023-01-30T11:49:49.726Z,99141.20
2023-01-30T11:52:29.943Z,99139.94
2023-01-30T11:55:04.883Z,99135.73
2023-01-30T11:57:41.544Z,99139.90
2023-01-30T12:00:19.447Z,99138.79
2023-01-30T12:02:49.178Z,99136.84
2023-01-30T12:05:25.984Z,99134.30
2023-01-30T12:08:13.382Z,99135.15
2023-01-30T12:10:43.322Z,99124.84
2023-01-30T12:13:18.573Z,99127.71
2023-01-30T12:15:52.243Z,99124.66
2023-01-30T12:18:25.316Z,99123.96
2023-01-30T12:20:59.602Z,99120.73
2023-01-30T12:23:36.669Z,99116.48
2023-01-30T12:26:11.391Z,99108.95
2023-01-30T12:28:43.839Z,99108.18
2023-01-30T12:31:16.762Z,99113.52
2023-01-30T12:33:45.384Z,99111.95
2023-01-30T12:36:22.498Z,99108.75
2023-01-30T12:38:57.728Z,99110.89
2023-01-30T12:41:37.772Z,99108.47
2023-01-30T12:44:21.062Z,99110.48
2023-01-30T12:46:59.464Z,99107.09
2023-01-30T12:49:39.811Z,99103.95
2023-01-30T12:52:36.513Z,99101.96
2023-01-30T12:57:52.502Z,99101.66
2023-01-30T13:00:38.768Z,99107.39
2023-01-30T13:03:21.409Z,99108.30
2023-01-30T13:05:53.722Z,99104.27
2023-01-30T13:08:42.538Z,99104.99
2023-01-30T13:11:21.143Z,99094.30
2023-01-30T13:13:55.056Z,99097.21
2023-01-30T13:16:30.991Z,99101.88
2023-01-30T13:19:04.944Z,99099.73
2023-01-30T13:21:37.199Z,99101.55
2023-01-30T13:24:17.974Z,99103.36
2023-01-30T13:26:46.768Z,99105.55
2023-01-30T13:29:18.280Z,99106.34
2023-01-30T13:31:50.835Z,99100.38
2023-01-30T13:34:25.288Z,99101.02
2023-01-30T13:36:58.385Z,99092.44
2023-01-30T13:39:33.580Z,99093.49
2023-01-30T13:42:05.897Z,99094.02
2023-01-30T13:44:39.355Z,99088.29
2023-01-30T13:47:17.696Z,99093.25
2023-01-30T13:49:50.827Z,99090.59
2023-01-30T13:52:24.414Z,99091.66
2023-01-30T13:54:59.866Z,99088.91
2023-01-30T13:57:40.466Z,99084.65
2023-01-30T14:00:27.027Z,99086.33
2023-01-30T14:03:24.123Z,99082.26
2023-01-30T14:06:26.567Z,99086.04
2023-01-30T14:08:58.792Z,99095.13
2023-01-30T14:11:46.988Z,99098.73
2023-01-30T14:14:25.468Z,99104.05
2023-01-30T14:16:55.450Z,99102.06
2023-01-30T14:19:39.162Z,99114.63
2023-01-30T14:22:24.476Z,99119.05
2023-01-30T14:25:33.198Z,99116.13
2023-01-30T14:28:43.123Z,99112.35
2023-01-30T14:31:11.964Z,99111.34
2023-01-30T14:33:50.209Z,99110.19
2023-01-30T14:36:35.929Z,99115.09
2023-01-30T14:39:38.770Z,99114.05
2023-01-30T14:42:20.244Z,99115.80
2023-01-30T14:44:59.669Z,99115.38
2023-01-30T14:47:36.191Z,99121.60
2023-01-30T14:50:21.051Z,99125.50
2023-01-30T14:52:50.225Z,99122.71
2023-01-30T14:55:21.826Z,99118.11
2023-01-30T14:57:55.217Z,99120.48
2023-01-30T15:00:28.637Z,99121.90
2023-01-30T15:02:59.662Z,99121.71
2023-01-30T15:05:31.949Z,99122.64
2023-01-30T15:08:07.997Z,99115.41
2023-01-30T15:10:52.640Z,99113.80
2023-01-30T15:13:42.417Z,99119.36
2023-01-30T15:16:27.455Z,99117.94
2023-01-30T15:19:05.785Z,99118.49
2023-01-30T15:21:49.384Z,99118.55
2023-01-30T15:24:48.710Z,99124.97
2023-01-30T15:27:22.481Z,99123.85
2023-01-30T15:30:04.247Z,99127.05
2023-01-30T15:32:34.326Z,99127.52
2023-01-30T15:35:16.653Z,99137.23
2023-01-30T15:37:50.552Z,99145.20
2023-01-30T15:40:25.325Z,99141.46
2023-01-30T15:43:02.288Z,99139.29
2023-01-30T15:45:38.183Z,99143.55
2023-01-30T15:48:33.468Z,99140.91
2023-01-30T15:51:15.375Z,99146.52
2023-01-30T15:53:46.961Z,99146.77
2023-01-30T15:56:20.862Z,99142.88
2023-01-30T15:58:50.037Z,99146.81
2023-01-30T16:01:21.144Z,99149.13
2023-01-30T16:03:50.534Z,99151.98
2023-01-30T16:06:32.067Z,99155.38
2023-01-30T16:09:02.100Z,99160.67
2023-01-30T16:11:38.875Z,99161.04
2023-01-30T16:14:12.652Z,99163.11
2023-01-30T16:16:43.672Z,99163.67
2023-01-30T16:19:20.751Z,99163.96
2023-01-30T16:21:49.416Z,99163.18
2023-01-30T16:24:21.698Z,99158.40
2023-01-30T16:26:52.987Z,99157.91
2023-01-30T16:29:23.130Z,99154.84
2023-01-30T16:31:55.030Z,99146.14
2023-01-30T16:34:29.843Z,99148.56
2023-01-30T16:37:05.256Z,99158.61
2023-01-30T16:39:36.315Z,99155.58
2023-01-30T16:42:23.256Z,99156.52
2023-01-30T16:44:52.095Z,99159.70
2023-01-30T16:47:24.474Z,99164.21
2023-01-30T16:49:53.964Z,99165.98
2023-01-30T16:52:24.270Z,99168.63
2023-01-30T16:54:54.225Z,99164.77
2023-01-30T16:57:35.741Z,99171.70
2023-01-30T17:00:09.467Z,99180.08
2023-01-30T17:02:40.199Z,99173.21
2023-01-30T17:05:24.614Z,99169.96
2023-01-30T17:07:55.869Z,99166.24
2023-01-30T17:10:49.102Z,99169.82
2023-01-30T17:13:36.329Z,99170.47
2023-01-30T17:16:30.073Z,99173.38
2023-01-30T17:18:59.155Z,99167.70
2023-01-30T17:21:30.305Z,99160.50
2023-01-30T17:24:01.457Z,99169.67
2023-01-30T17:26:30.598Z,99171.12
2023-01-30T17:28:59.052Z,99176.63
2023-01-30T17:31:27.643Z,99173.41
2023-01-30T17:33:56.065Z,99170.15
2023-01-30T17:36:27.908Z,99177.31
2023-01-30T17:38:56.473Z,99178.30
2023-01-30T17:41:27.833Z,99184.16
2023-01-30T17:43:56.265Z,99189.66
2023-01-30T17:46:32.806Z,99184.75
2023-01-30T17:49:01.563Z,99183.88
2023-01-30T17:51:29.989Z,99184.20
2023-01-30T17:53:58.348Z,99185.92
2023-01-30T17:56:30.597Z,99187.80
2023-01-30T17:58:59.314Z,99191.11
2023-01-30T18:01:27.802Z,99187.26
2023-01-30T18:03:56.131Z,99185.02
2023-01-30T18:06:26.582Z,99183.05
2023-01-30T18:08:55.184Z,99185.77
2023-01-30T18:11:23.792Z,99189.41
2023-01-30T18:13:52.221Z,99192.77
2023-01-30T18:16:23.121Z,99193.02
2023-01-30T18:18:55.087Z,99196.02
2023-01-30T18:21:23.623Z,99192.05
2023-01-30T18:23:52.143Z,99192.27
2023-01-30T18:26:20.951Z,99195.91
2023-01-30T18:28:50.750Z,99199.95
2023-01-30T18:31:23.163Z,99200.11
2023-01-30T18:33:52.691Z,99205.83
2023-01-30T18:36:22.539Z,99203.38
2023-01-30T18:38:52.795Z,99202.48
2023-01-30T18:41:23.535Z,99205.13
2023-01-30T18:43:55.686Z,99201.81
2023-01-30T18:46:24.683Z,99202.30
2023-01-30T18:48:53.174Z,99199.54
2023-01-30T18:51:23.447Z,99198.94
2023-01-30T18:53:52.656Z,99196.98
2023-01-30T18:56:22.773Z,99201.35
2023-01-30T18:58:52.329Z,99197.20
2023-01-30T19:01:23.906Z,99197.73
2023-01-30T19:03:58.126Z,99195.23
2023-01-30T19:06:28.098Z,99190.55
2023-01-30T19:08:57.733Z,99195.54
2023-01-30T19:11:44.664Z,99195.23
2023-01-30T19:14:13.961Z,99209.27
2023-01-30T19:16:42.481Z,99208.45
2023-01-30T19:19:10.934Z,99213.90
2023-01-30T19:21:39.504Z,99209.81
2023-01-30T19:24:11.675Z,99215.10
2023-01-30T19:26:40.663Z,99210.23
2023-01-30T19:29:09.706Z,99217.08
2023-01-30T19:31:38.267Z,99218.77
2023-01-30T19:34:07.503Z,99211.08
2023-01-30T19:36:36.944Z,99205.60
2023-01-30T19:39:05.768Z,99212.67
2023-01-30T19:41:35.249Z,99214.78
2023-01-30T19:44:05.495Z,99213.92
2023-01-30T19:46:34.023Z,99217.02
2023-01-30T19:49:03.108Z,99218.30
2023-01-30T19:51:32.988Z,99219.67
2023-01-30T19:54:03.974Z,99217.89
2023-01-30T19:56:33.704Z,99216.09
2023-01-30T19:59:02.346Z,99216.34
2023-01-30T20:01:34.859Z,99223.67
2023-01-30T20:04:05.110Z,99226.06
2023-01-30T20:06:34.548Z,99222.38
2023-01-30T20:09:05.307Z,99222.55
2023-01-30T20:11:35.940Z,99223.02
2023-01-30T20:14:06.313Z,99222.77
2023-01-30T20:16:35.252Z,99222.50
2023-01-30T20:19:05.212Z,99225.60
2023-01-30T20:21:34.415Z,99225.60
2023-01-30T20:24:03.341Z,99220.07
2023-01-30T20:26:34.565Z,99222.89
2023-01-30T20:29:04.146Z,99225.91
2023-01-30T20:31:34.081Z,99223.98
2023-01-30T20:34:03.861Z,99224.80
2023-01-30T20:36:32.440Z,99230.55
2023-01-30T20:39:02.980Z,99236.35
2023-01-30T20:41:32.723Z,99243.46
2023-01-30T20:44:01.167Z,99252.73
2023-01-30T20:46:31.498Z,99254.89
2023-01-30T20:49:01.117Z,99260.22
2023-01-30T20:51:31.501Z,99264.60
2023-01-30T20:54:01.489Z,99266.77
2023-01-30T20:56:33.484Z,99274.52
2023-01-30T20:59:03.453Z,99267.23
2023-01-30T21:01:32.596Z,99275.40
2023-01-30T21:04:06.340Z,99280.73
2023-01-30T21:06:42.259Z,99274.73
2023-01-30T21:09:15.836Z,99279.02
2023-01-30T21:11:44.567Z,99282.64
2023-01-30T21:14:13.474Z,99284.13
2023-01-30T21:16:42.119Z,99288.27
2023-01-30T21:19:14.535Z,99301.88
2023-01-30T21:21:49.841Z,99292.05
2023-01-30T21:24:20.725Z,99292.16
2023-01-30T21:26:49.406Z,99302.02
2023-01-30T21:29:20.161Z,99309.63
2023-01-30T21:31:48.873Z,99309.56
2023-01-30T21:34:17.638Z,99308.22
2023-01-30T21:37:06.678Z,99310.72
2023-01-30T21:39:53.541Z,99313.92
2023-01-30T21:42:40.471Z,99308.48
2023-01-30T21:45:10.276Z,99308.08
2023-01-30T21:47:38.920Z,99310.36
2023-01-30T21:50:10.027Z,99313.71
2023-01-30T21:52:39.081Z,99313.48
2023-01-30T21:55:09.268Z,99315.58
2023-01-30T21:57:37.722Z,99320.35
2023-01-30T22:00:08.535Z,99319.51
2023-01-30T22:02:37.523Z,99320.51
2023-01-30T22:05:08.617Z,99323.98
2023-01-30T22:07:37.637Z,99322.95
2023-01-30T22:10:07.365Z,99322.36
2023-01-30T22:12:39.858Z,99330.45
2023-01-30T22:15:10.157Z,99325.81
2023-01-30T22:17:38.646Z,99326.52
2023-01-30T22:20:09.464Z,99331.36
2023-01-30T22:22:37.870Z,99330.91
2023-01-30T22:25:08.380Z,99338.41
2023-01-30T22:27:37.487Z,99340.98
2023-01-30T22:30:08.140Z,99345.37
2023-01-30T22:32:36.544Z,99347.98
2023-01-30T22:35:06.228Z,99345.86
2023-01-30T22:37:35.004Z,99349.07
2023-01-30T22:40:03.602Z,99356.79
2023-01-30T22:42:32.034Z,99365.52
2023-01-30T22:45:00.733Z,99369.98
2023-01-30T22:47:29.185Z,99372.48
2023-01-30T22:49:57.573Z,99371.27
2023-01-30T22:52:26.255Z,99369.58
2023-01-30T22:54:54.861Z,99362.28
2023-01-30T22:57:23.258Z,99365.20
2023-01-30T22:59:51.965Z,99363.54
2023-01-30T23:02:20.427Z,99363.87
2023-01-30T23:04:49.885Z,99366.29
2023-01-30T23:07:20.193Z,99366.13
2023-01-30T23:09:48.511Z,99366.29
2023-01-30T23:12:35.673Z,99367.93
2023-01-30T23:15:05.847Z,99364.92
2023-01-30T23:17:52.804Z,99368.54
2023-01-30T23:20:21.155Z,99371.52
2023-01-30T23:22:51.763Z,99372.72
2023-01-30T23:25:20.432Z,99369.30
2023-01-30T23:27:49.093Z,99371.09
2023-01-30T23:30:18.444Z,99378.63
2023-01-30T23:32:47.440Z,99372.58
2023-01-30T23:35:16.131Z,99373.77
2023-01-30T23:38:02.636Z,99376.40
2023-01-30T23:40:31.025Z,99376.16
2023-01-30T23:42:59.740Z,99378.09
2023-01-30T23:45:29.015Z,99378.55
2023-01-30T23:47:57.615Z,99373.30
2023-01-30T23:50:26.071Z,99371.60
2023-01-30T23:52:54.398Z,99373.35
2023-01-30T23:55:22.785Z,99375.68
2023-01-30T23:57:51.152Z,99381.85
